sensor_id;sensor_type;location;lat;lon;timestamp;pressure;altitude;pressure_sealevel;temperature;humidity
74680;BME280;63211;48.548;2.704;2022-09-12T00:00:47;100711.72;;;21.06;62.34
74680;BME280;63211;48.548;2.704;2022-09-12T00:03:14;100713.63;;;21.06;62.27
74680;BME280;63211;48.548;2.704;2022-09-12T00:05:43;100715.28;;;21.07;62.14
74680;BME280;63211;48.548;2.704;2022-09-12T00:08:11;100705.41;;;21.06;62.13
74680;BME280;63211;48.548;2.704;2022-09-12T00:10:38;100719.94;;;21.06;62.29
74680;BME280;63211;48.548;2.704;2022-09-12T00:13:05;100719.09;;;21.06;62.34
74680;BME280;63211;48.548;2.704;2022-09-12T00:15:37;100716.59;;;21.04;62.03
74680;BME280;63211;48.548;2.704;2022-09-12T00:18:03;100710.78;;;21.01;62.29
74680;BME280;63211;48.548;2.704;2022-09-12T00:20:30;100711.13;;;21.04;62.26
74680;BME280;63211;48.548;2.704;2022-09-12T00:22:58;100721.25;;;21.04;62.52
74680;BME280;63211;48.548;2.704;2022-09-12T00:25:25;100715.75;;;21.04;62.29
74680;BME280;63211;48.548;2.704;2022-09-12T00:27:52;100715.75;;;21.04;62.46
74680;BME280;63211;48.548;2.704;2022-09-12T00:30:18;100693.19;;;20.97;62.26
74680;BME280;63211;48.548;2.704;2022-09-12T00:32:45;100703.16;;;21.03;62.12
74680;BME280;63211;48.548;2.704;2022-09-12T00:35:11;100698.75;;;21.02;62.26
74680;BME280;63211;48.548;2.704;2022-09-12T00:37:38;100701.47;;;21.02;62.35
74680;BME280;63211;48.548;2.704;2022-09-12T00:40:07;100693.28;;;21.02;62.08
74680;BME280;63211;48.548;2.704;2022-09-12T00:42:33;100693.28;;;21.02;62.23
74680;BME280;63211;48.548;2.704;2022-09-12T00:45:00;100686.97;;;21.01;62.33
74680;BME280;63211;48.548;2.704;2022-09-12T00:47:28;100682.56;;;21.00;62.29
74680;BME280;63211;48.548;2.704;2022-09-12T00:50:03;100679.00;;;21.00;62.37
74680;BME280;63211;48.548;2.704;2022-09-12T00:52:35;100672.97;;;20.98;62.52
74680;BME280;63211;48.548;2.704;2022-09-12T00:55:10;100672.97;;;20.98;62.27
74680;BME280;63211;48.548;2.704;2022-09-12T00:57:42;100667.50;;;20.98;62.20
74680;BME280;63211;48.548;2.704;2022-09-12T01:00:12;100660.94;;;20.99;62.38
74680;BME280;63211;48.548;2.704;2022-09-12T01:02:41;100658.19;;;20.99;62.17
74680;BME280;63211;48.548;2.704;2022-09-12T01:05:10;100664.75;;;20.98;62.17
74680;BME280;63211;48.548;2.704;2022-09-12T01:07:39;100659.53;;;20.96;62.28
74680;BME280;63211;48.548;2.704;2022-09-12T01:10:08;100652.03;;;20.91;62.16
74680;BME280;63211;48.548;2.704;2022-09-12T01:12:38;100654.03;;;20.96;62.05
74680;BME280;63211;48.548;2.704;2022-09-12T01:15:06;100661.41;;;20.96;62.46
74680;BME280;63211;48.548;2.704;2022-09-12T01:17:39;100651.31;;;20.96;62.45
74680;BME280;63211;48.548;2.704;2022-09-12T01:20:34;100653.22;;;20.96;62.13
74680;BME280;63211;48.548;2.704;2022-09-12T01:26:39;100652.38;;;20.95;62.09
74680;BME280;63211;48.548;2.704;2022-09-12T01:29:24;100648.81;;;20.95;62.18
74680;BME280;63211;48.548;2.704;2022-09-12T01:32:05;100651.56;;;20.95;62.04
74680;BME280;63211;48.548;2.704;2022-09-12T01:34:41;100648.81;;;20.95;62.11
74680;BME280;63211;48.548;2.704;2022-09-12T01:37:15;100646.06;;;20.95;62.29
74680;BME280;63211;48.548;2.704;2022-09-12T01:39:49;100642.50;;;20.94;62.18
74680;BME280;63211;48.548;2.704;2022-09-12T01:42:27;100644.66;;;20.92;62.16
74680;BME280;63211;48.548;2.704;2022-09-12T01:45:02;100643.56;;;20.93;62.23
74680;BME280;63211;48.548;2.704;2022-09-12T01:47:38;100640.00;;;20.92;62.17
74680;BME280;63211;48.548;2.704;2022-09-12T01:50:08;100635.84;;;20.90;62.24
74680;BME280;63211;48.548;2.704;2022-09-12T01:52:41;100635.59;;;20.91;62.16
74680;BME280;63211;48.548;2.704;2022-09-12T01:55:13;100633.94;;;20.90;62.16
74680;BME280;63211;48.548;2.704;2022-09-12T01:57:45;100631.22;;;20.90;61.99
74680;BME280;63211;48.548;2.704;2022-09-12T02:00:14;100624.91;;;20.90;62.17
74680;BME280;63211;48.548;2.704;2022-09-12T02:02:45;100624.91;;;20.90;62.20
74680;BME280;63211;48.548;2.704;2022-09-12T02:05:19;100626.81;;;20.89;62.20
74680;BME280;63211;48.548;2.704;2022-09-12T02:07:51;100620.25;;;20.90;62.37
74680;BME280;63211;48.548;2.704;2022-09-12T02:10:21;100625.16;;;20.88;62.16
74680;BME280;63211;48.548;2.704;2022-09-12T02:12:53;100620.75;;;20.87;62.15
74680;BME280;63211;48.548;2.704;2022-09-12T02:15:24;100608.72;;;20.88;61.88
74680;BME280;63211;48.548;2.704;2022-09-12T02:17:55;100612.28;;;20.89;61.97
74680;BME280;63211;48.548;2.704;2022-09-12T02:20:25;100609.81;;;20.87;62.06
74680;BME280;63211;48.548;2.704;2022-09-12T02:22:55;100612.53;;;20.87;62.27
74680;BME280;63211;48.548;2.704;2022-09-12T02:25:24;100615.03;;;20.89;62.05
74680;BME280;63211;48.548;2.704;2022-09-12T02:27:54;100613.63;;;20.86;62.20
74680;BME280;63211;48.548;2.704;2022-09-12T02:30:23;100612.53;;;20.87;62.07
74680;BME280;63211;48.548;2.704;2022-09-12T02:32:57;100615.50;;;20.86;61.99
74680;BME280;63211;48.548;2.704;2022-09-12T02:35:32;100608.13;;;20.86;62.01
74680;BME280;63211;48.548;2.704;2022-09-12T02:38:04;100606.47;;;20.85;62.19
74680;BME280;63211;48.548;2.704;2022-09-12T02:40:34;100610.75;;;20.81;62.12
74680;BME280;63211;48.548;2.704;2022-09-12T02:43:02;100617.41;;;20.85;62.10
74680;BME280;63211;48.548;2.704;2022-09-12T02:45:30;100620.16;;;20.85;62.14
74680;BME280;63211;48.548;2.704;2022-09-12T02:48:03;100608.63;;;20.83;62.05
74680;BME280;63211;48.548;2.704;2022-09-12T02:50:31;100604.56;;;20.86;62.08
74680;BME280;63211;48.548;2.704;2022-09-12T02:52:58;100598.50;;;20.84;61.87
74680;BME280;63211;48.548;2.704;2022-09-12T02:55:29;100596.84;;;20.83;62.07
74680;BME280;63211;48.548;2.704;2022-09-12T02:57:57;100594.34;;;20.81;62.48
74680;BME280;63211;48.548;2.704;2022-09-12T03:00:24;100591.38;;;20.83;62.16
74680;BME280;63211;48.548;2.704;2022-09-12T03:03:06;100587.81;;;20.82;62.33
74680;BME280;63211;48.548;2.704;2022-09-12T03:05:39;100593.28;;;20.82;61.97
74680;BME280;63211;48.548;2.704;2022-09-12T03:08:31;100590.53;;;20.82;62.32
74680;BME280;63211;48.548;2.704;2022-09-12T03:14:11;100585.06;;;20.82;61.95
74680;BME280;63211;48.548;2.704;2022-09-12T03:16:45;100580.44;;;20.83;61.97
74680;BME280;63211;48.548;2.704;2022-09-12T03:19:19;100578.75;;;20.82;61.99
74680;BME280;63211;48.548;2.704;2022-09-12T03:21:57;100574.13;;;20.82;61.96
74680;BME280;63211;48.548;2.704;2022-09-12T03:24:30;100567.00;;;20.81;61.90
74680;BME280;63211;48.548;2.704;2022-09-12T03:27:05;100570.78;;;20.80;62.05
74680;BME280;63211;48.548;2.704;2022-09-12T03:29:36;100563.41;;;20.81;61.95
74680;BME280;63211;48.548;2.704;2022-09-12T03:32:04;100557.13;;;20.80;61.99
74680;BME280;63211;48.548;2.704;2022-09-12T03:34:33;100562.03;;;20.78;62.19
74680;BME280;63211;48.548;2.704;2022-09-12T03:36:59;100548.34;;;20.78;61.83
74680;BME280;63211;48.548;2.704;2022-09-12T03:39:26;100554.63;;;20.79;62.02
74680;BME280;63211;48.548;2.704;2022-09-12T03:41:53;100554.91;;;20.77;61.77
74680;BME280;63211;48.548;2.704;2022-09-12T03:44:20;100552.16;;;20.77;61.79
74680;BME280;63211;48.548;2.704;2022-09-12T03:46:46;100551.31;;;20.77;61.82
74680;BME280;63211;48.548;2.704;2022-09-12T03:49:13;100532.31;;;20.70;61.65
74680;BME280;63211;48.548;2.704;2022-09-12T03:51:41;100555.13;;;20.76;61.81
74680;BME280;63211;48.548;2.704;2022-09-12T03:54:08;100551.56;;;20.75;61.94
74680;BME280;63211;48.548;2.704;2022-09-12T03:56:35;100551.56;;;20.75;61.67
74680;BME280;63211;48.548;2.704;2022-09-12T03:59:04;100555.13;;;20.76;61.63
74680;BME280;63211;48.548;2.704;2022-09-12T04:01:31;100551.56;;;20.75;61.77
74680;BME280;63211;48.548;2.704;2022-09-12T04:03:57;100558.13;;;20.74;61.69
74680;BME280;63211;48.548;2.704;2022-09-12T04:06:24;100556.22;;;20.75;61.70
74680;BME280;63211;48.548;2.704;2022-09-12T04:08:53;100556.44;;;20.73;61.61
74680;BME280;63211;48.548;2.704;2022-09-12T04:11:21;100553.72;;;20.73;61.50
74680;BME280;63211;48.548;2.704;2022-09-12T04:13:48;100559.44;;;20.72;61.51
74680;BME280;63211;48.548;2.704;2022-09-12T04:16:16;100554.78;;;20.72;61.70
74680;BME280;63211;48.548;2.704;2022-09-12T04:18:43;100560.25;;;20.72;61.54
74680;BME280;63211;48.548;2.704;2022-09-12T04:21:12;100555.28;;;20.69;61.61
74680;BME280;63211;48.548;2.704;2022-09-12T04:23:39;100565.75;;;20.72;61.82
74680;BME280;63211;48.548;2.704;2022-09-12T04:26:07;100565.75;;;20.72;61.66
74680;BME280;63211;48.548;2.704;2022-09-12T04:28:36;100558.59;;;20.71;61.86
74680;BME280;63211;48.548;2.704;2022-09-12T04:31:05;100561.34;;;20.71;61.51
74680;BME280;63211;48.548;2.704;2022-09-12T04:33:32;100562.41;;;20.70;61.59
74680;BME280;63211;48.548;2.704;2022-09-12T04:36:05;100566.22;;;20.69;61.62
74680;BME280;63211;48.548;2.704;2022-09-12T04:38:32;100563.47;;;20.69;61.60
74680;BME280;63211;48.548;2.704;2022-09-12T04:40:59;100560.75;;;20.69;61.60
74680;BME280;63211;48.548;2.704;2022-09-12T04:43:27;100568.13;;;20.69;61.44
74680;BME280;63211;48.548;2.704;2022-09-12T04:45:54;100557.44;;;20.67;61.43
74680;BME280;63211;48.548;2.704;2022-09-12T04:48:21;100563.72;;;20.68;61.50
74680;BME280;63211;48.548;2.704;2022-09-12T04:50:47;100562.06;;;20.67;61.52
74680;BME280;63211;48.548;2.704;2022-09-12T04:53:14;100566.69;;;20.66;61.42
74680;BME280;63211;48.548;2.704;2022-09-12T04:55:41;100557.44;;;20.67;61.68
74680;BME280;63211;48.548;2.704;2022-09-12T04:58:08;100562.91;;;20.67;61.52
74680;BME280;63211;48.548;2.704;2022-09-12T05:00:36;100567.28;;;20.68;61.76
74680;BME280;63211;48.548;2.704;2022-09-12T05:03:02;100566.94;;;20.65;61.62
74680;BME280;63211;48.548;2.704;2022-09-12T05:05:29;100567.78;;;20.65;62.10
74680;BME280;63211;48.548;2.704;2022-09-12T05:07:56;100562.91;;;20.67;63.15
74680;BME280;63211;48.548;2.704;2022-09-12T05:10:22;100559.09;;;20.68;62.73
74680;BME280;63211;48.548;2.704;2022-09-12T05:12:49;100553.28;;;20.65;61.59
74680;BME280;63211;48.548;2.704;2022-09-12T05:15:15;100547.78;;;20.65;61.65
74680;BME280;63211;48.548;2.704;2022-09-12T05:17:43;100549.13;;;20.62;61.65
74680;BME280;63211;48.548;2.704;2022-09-12T05:20:10;100542.22;;;20.59;61.56
74680;BME280;63211;48.548;2.704;2022-09-12T05:22:37;100546.03;;;20.58;61.19
74680;BME280;63211;48.548;2.704;2022-09-12T05:25:05;100544.13;;;20.59;61.40
74680;BME280;63211;48.548;2.704;2022-09-12T05:27:32;100546.03;;;20.58;61.47
74680;BME280;63211;48.548;2.704;2022-09-12T05:29:58;100540.84;;;20.57;61.59
74680;BME280;63211;48.548;2.704;2022-09-12T05:32:25;100546.31;;;20.57;61.08
74680;BME280;63211;48.548;2.704;2022-09-12T05:34:53;100547.94;;;20.58;61.36
74680;BME280;63211;48.548;2.704;2022-09-12T05:37:20;100535.84;;;20.54;61.22
74680;BME280;63211;48.548;2.704;2022-09-12T05:39:47;100551.50;;;20.58;61.40
74680;BME280;63211;48.548;2.704;2022-09-12T05:42:14;100552.59;;;20.57;61.29
74680;BME280;63211;48.548;2.704;2022-09-12T05:44:40;100548.75;;;20.58;61.90
74680;BME280;63211;48.548;2.704;2022-09-12T05:47:10;100541.16;;;20.61;62.44
74680;BME280;63211;48.548;2.704;2022-09-12T05:49:37;100548.28;;;20.62;62.74
74680;BME280;63211;48.548;2.704;2022-09-12T05:52:05;100541.72;;;20.63;63.03
74680;BME280;63211;48.548;2.704;2022-09-12T05:54:31;100543.63;;;20.62;62.84
74680;BME280;63211;48.548;2.704;2022-09-12T05:56:58;100536.03;;;20.64;63.51
74680;BME280;63211;48.548;2.704;2022-09-12T05:59:25;100537.09;;;20.63;62.91
74680;BME280;63211;48.548;2.704;2022-09-12T06:01:52;100546.97;;;20.64;63.76
74680;BME280;63211;48.548;2.704;2022-09-12T06:04:19;100536.59;;;20.66;65.04
74680;BME280;63211;48.548;2.704;2022-09-12T06:06:48;100543.50;;;20.69;65.20
74680;BME280;63211;48.548;2.704;2022-09-12T06:09:16;100544.34;;;20.69;65.43
74680;BME280;63211;48.548;2.704;2022-09-12T06:11:43;100547.91;;;20.70;64.83
74680;BME280;63211;48.548;2.704;2022-09-12T06:14:12;100550.41;;;20.71;64.96
74680;BME280;63211;48.548;2.704;2022-09-12T06:16:39;100551.22;;;20.72;65.14
74680;BME280;63211;48.548;2.704;2022-09-12T06:19:11;100549.81;;;20.69;64.86
74680;BME280;63211;48.548;2.704;2022-09-12T06:21:38;100552.31;;;20.71;64.10
74680;BME280;63211;48.548;2.704;2022-09-12T06:24:08;100554.19;;;20.70;64.30
74680;BME280;63211;48.548;2.704;2022-09-12T06:26:37;100551.47;;;20.70;63.83
74680;BME280;63211;48.548;2.704;2022-09-12T06:29:04;100551.47;;;20.70;63.63
74680;BME280;63211;48.548;2.704;2022-09-12T06:31:33;100557.19;;;20.69;63.57
74680;BME280;63211;48.548;2.704;2022-09-12T06:34:03;100552.88;;;20.73;63.71
74680;BME280;63211;48.548;2.704;2022-09-12T06:36:32;100557.03;;;20.75;63.33
74680;BME280;63211;48.548;2.704;2022-09-12T06:38:59;100549.41;;;20.77;63.41
74680;BME280;63211;48.548;2.704;2022-09-12T06:41:27;100548.91;;;20.80;63.43
74680;BME280;63211;48.548;2.704;2022-09-12T06:43:55;100547.59;;;20.83;63.36
74680;BME280;63211;48.548;2.704;2022-09-12T06:46:22;100541.88;;;20.84;63.26
74680;BME280;63211;48.548;2.704;2022-09-12T06:48:49;100549.84;;;20.86;63.36
74680;BME280;63211;48.548;2.704;2022-09-12T06:51:17;100555.06;;;20.87;63.12
74680;BME280;63211;48.548;2.704;2022-09-12T06:53:46;100555.81;;;20.83;63.07
74680;BME280;63211;48.548;2.704;2022-09-12T06:56:14;100556.97;;;20.87;62.97
74680;BME280;63211;48.548;2.704;2022-09-12T06:58:42;100547.09;;;20.86;62.88
74680;BME280;63211;48.548;2.704;2022-09-12T07:01:11;100547.69;;;20.88;62.55
74680;BME280;63211;48.548;2.704;2022-09-12T07:03:38;100541.38;;;20.87;62.48
74680;BME280;63211;48.548;2.704;2022-09-12T07:06:08;100529.25;;;20.83;62.82
74680;BME280;63211;48.548;2.704;2022-09-12T07:08:35;100537.56;;;20.88;62.39
74680;BME280;63211;48.548;2.704;2022-09-12T07:11:08;100543.03;;;20.88;62.56
74680;BME280;63211;48.548;2.704;2022-09-12T07:13:35;100529.38;;;20.88;62.54
74680;BME280;63211;48.548;2.704;2022-09-12T07:16:03;100532.94;;;20.89;62.54
74680;BME280;63211;48.548;2.704;2022-09-12T07:18:32;100537.56;;;20.88;62.40
74680;BME280;63211;48.548;2.704;2022-09-12T07:20:59;100538.41;;;20.89;62.32
74680;BME280;63211;48.548;2.704;2022-09-12T07:23:26;100536.50;;;20.89;62.33
74680;BME280;63211;48.548;2.704;2022-09-12T07:25:52;100538.16;;;20.90;62.46
74680;BME280;63211;48.548;2.704;2022-09-12T07:28:21;100544.47;;;20.91;62.16
74680;BME280;63211;48.548;2.704;2022-09-12T07:30:48;100546.38;;;20.90;62.20
74680;BME280;63211;48.548;2.704;2022-09-12T07:33:15;100540.66;;;20.92;62.24
74680;BME280;63211;48.548;2.704;2022-09-12T07:35:43;100539.00;;;20.91;62.37
74680;BME280;63211;48.548;2.704;2022-09-12T07:38:10;100548.03;;;20.91;62.33
74680;BME280;63211;48.548;2.704;2022-09-12T07:40:37;100550.53;;;20.93;62.55
74680;BME280;63211;48.548;2.704;2022-09-12T07:43:03;100545.88;;;20.93;62.18
74680;BME280;63211;48.548;2.704;2022-09-12T07:45:30;100545.88;;;20.93;62.19
74680;BME280;63211;48.548;2.704;2022-09-12T07:47:56;100543.16;;;20.93;62.27
74680;BME280;63211;48.548;2.704;2022-09-12T07:50:23;100543.16;;;20.93;62.25
74680;BME280;63211;48.548;2.704;2022-09-12T07:52:53;100538.25;;;20.96;62.20
74680;BME280;63211;48.548;2.704;2022-09-12T07:55:20;100552.53;;;20.98;62.26
74680;BME280;63211;48.548;2.704;2022-09-12T07:57:48;100542.97;;;21.00;62.44
74680;BME280;63211;48.548;2.704;2022-09-12T08:00:15;100545.47;;;21.02;62.60
74680;BME280;63211;48.548;2.704;2022-09-12T08:02:42;100542.44;;;21.15;62.25
74680;BME280;63211;48.548;2.704;2022-09-12T08:05:08;100546.91;;;21.21;61.93
74680;BME280;63211;48.548;2.704;2022-09-12T08:07:35;100552.00;;;21.29;61.85
74680;BME280;63211;48.548;2.704;2022-09-12T08:10:03;100536.88;;;21.26;61.76
74680;BME280;63211;48.548;2.704;2022-09-12T08:12:30;100541.03;;;21.29;61.96
74680;BME280;63211;48.548;2.704;2022-09-12T08:14:58;100534.75;;;21.29;61.84
74680;BME280;63211;48.548;2.704;2022-09-12T08:17:25;100538.72;;;21.38;61.72
74680;BME280;63211;48.548;2.704;2022-09-12T08:19:53;100536.63;;;21.45;61.84
74680;BME280;63211;48.548;2.704;2022-09-12T08:22:19;100524.09;;;21.49;61.46
74680;BME280;63211;48.548;2.704;2022-09-12T08:24:46;100534.31;;;21.53;61.51
74680;BME280;63211;48.548;2.704;2022-09-12T08:27:14;100530.50;;;21.54;61.46
74680;BME280;63211;48.548;2.704;2022-09-12T08:29:41;100527.19;;;21.52;61.68
74680;BME280;63211;48.548;2.704;2022-09-12T08:32:07;100533.81;;;21.56;61.37
74680;BME280;63211;48.548;2.704;2022-09-12T08:34:34;100547.66;;;21.67;61.27
74680;BME280;63211;48.548;2.704;2022-09-12T08:37:01;100539.63;;;21.60;61.46
74680;BME280;63211;48.548;2.704;2022-09-12T08:39:28;100537.97;;;21.59;61.59
74680;BME280;63211;48.548;2.704;2022-09-12T08:41:59;100535.53;;;21.63;61.57
74680;BME280;63211;48.548;2.704;2022-09-12T08:44:46;100550.16;;;21.68;61.59
74680;BME280;63211;48.548;2.704;2022-09-12T08:47:20;100545.25;;;21.70;61.56
74680;BME280;63211;48.548;2.704;2022-09-12T08:49:54;100539.84;;;21.75;61.55
74680;BME280;63211;48.548;2.704;2022-09-12T08:55:35;100539.69;;;21.65;61.88
74680;BME280;63211;48.548;2.704;2022-09-12T08:58:11;100550.50;;;21.55;62.25
74680;BME280;63211;48.548;2.704;2022-09-12T09:00:44;100543.88;;;21.51;62.34
74680;BME280;63211;48.548;2.704;2022-09-12T09:03:35;100538.63;;;21.49;62.47
74680;BME280;63211;48.548;2.704;2022-09-12T09:06:14;100545.78;;;21.50;62.39
74680;BME280;63211;48.548;2.704;2022-09-12T09:08:49;100541.13;;;21.51;62.38
74680;BME280;63211;48.548;2.704;2022-09-12T09:11:36;100532.66;;;21.52;62.29
74680;BME280;63211;48.548;2.704;2022-09-12T09:14:19;100523.94;;;21.55;62.24
74680;BME280;63211;48.548;2.704;2022-09-12T09:17:10;100525.59;;;21.56;62.12
74680;BME280;63211;48.548;2.704;2022-09-12T09:19:41;100533.56;;;21.58;62.04
74680;BME280;63211;48.548;2.704;2022-09-12T09:22:15;100526.81;;;21.66;62.04
74680;BME280;63211;48.548;2.704;2022-09-12T09:24:47;100534.53;;;21.69;62.10
74680;BME280;63211;48.548;2.704;2022-09-12T09:27:25;100532.28;;;21.66;62.23
74680;BME280;63211;48.548;2.704;2022-09-12T09:29:55;100531.47;;;21.65;62.20
74680;BME280;63211;48.548;2.704;2022-09-12T09:32:25;100535.22;;;21.59;62.35
74680;BME280;63211;48.548;2.704;2022-09-12T09:34:52;100527.75;;;21.54;62.35
74680;BME280;63211;48.548;2.704;2022-09-12T09:37:20;100522.28;;;21.54;62.32
74680;BME280;63211;48.548;2.704;2022-09-12T09:39:57;100531.97;;;21.62;62.22
74680;BME280;63211;48.548;2.704;2022-09-12T09:42:33;100517.72;;;21.60;61.96
74680;BME280;63211;48.548;2.704;2022-09-12T09:45:11;100518.22;;;21.57;62.14
74680;BME280;63211;48.548;2.704;2022-09-12T09:47:39;100512.72;;;21.57;62.19
74680;BME280;63211;48.548;2.704;2022-09-12T09:50:08;100511.31;;;21.54;62.15
74680;BME280;63211;48.548;2.704;2022-09-12T09:52:36;100507.25;;;21.57;61.99
74680;BME280;63211;48.548;2.704;2022-09-12T09:55:04;100508.91;;;21.58;61.87
74680;BME280;63211;48.548;2.704;2022-09-12T09:57:41;100510.00;;;21.57;62.15
74680;BME280;63211;48.548;2.704;2022-09-12T10:00:25;100508.91;;;21.58;61.94
74680;BME280;63211;48.548;2.704;2022-09-12T10:05:58;100507.00;;;21.58;61.54
74680;BME280;63211;48.548;2.704;2022-09-12T10:08:27;100496.88;;;21.59;61.79
74680;BME280;63211;48.548;2.704;2022-09-12T10:11:01;100501.53;;;21.58;61.59
74680;BME280;63211;48.548;2.704;2022-09-12T10:13:39;100502.94;;;21.61;61.44
74680;BME280;63211;48.548;2.704;2022-09-12T10:16:17;100501.28;;;21.60;61.53
74680;BME280;63211;48.548;2.704;2022-09-12T10:18:45;100495.50;;;21.61;61.71
74680;BME280;63211;48.548;2.704;2022-09-12T10:21:14;100490.88;;;21.62;61.60
74680;BME280;63211;48.548;2.704;2022-09-12T10:23:42;100496.94;;;21.64;61.03
74680;BME280;63211;48.548;2.704;2022-09-12T10:26:10;100497.25;;;21.68;61.07
74680;BME280;63211;48.548;2.704;2022-09-12T10:28:41;100492.59;;;21.68;60.85
74680;BME280;63211;48.548;2.704;2022-09-12T10:31:12;100484.63;;;21.67;60.83
74680;BME280;63211;48.548;2.704;2022-09-12T10:33:42;100479.41;;;21.65;60.96
74680;BME280;63211;48.548;2.704;2022-09-12T10:36:11;100467.13;;;21.68;60.98
74680;BME280;63211;48.548;2.704;2022-09-12T10:38:48;100471.75;;;21.67;61.23
74680;BME280;63211;48.548;2.704;2022-09-12T10:41:15;100477.00;;;21.69;60.72
74680;BME280;63211;48.548;2.704;2022-09-12T10:43:43;100484.97;;;21.70;60.95
74680;BME280;63211;48.548;2.704;2022-09-12T10:46:22;100470.31;;;21.59;61.84
74680;BME280;63211;48.548;2.704;2022-09-12T10:49:11;100488.78;;;21.69;61.11
74680;BME280;63211;48.548;2.704;2022-09-12T10:51:38;100497.84;;;21.70;61.55
74680;BME280;63211;48.548;2.704;2022-09-12T10:54:07;100481.97;;;21.72;61.36
74680;BME280;63211;48.548;2.704;2022-09-12T10:56:38;100481.47;;;21.75;60.86
74680;BME280;63211;48.548;2.704;2022-09-12T10:59:18;100455.25;;;21.62;61.16
74680;BME280;63211;48.548;2.704;2022-09-12T11:01:54;100468.59;;;21.75;61.09
74680;BME280;63211;48.548;2.704;2022-09-12T11:04:34;100473.25;;;21.75;61.20
74680;BME280;63211;48.548;2.704;2022-09-12T11:07:27;100472.44;;;21.74;60.96
74680;BME280;63211;48.548;2.704;2022-09-12T11:10:02;100469.19;;;21.77;61.18
74680;BME280;63211;48.548;2.704;2022-09-12T11:12:39;100467.53;;;21.76;60.92
74680;BME280;63211;48.548;2.704;2022-09-12T11:15:18;100470.25;;;21.76;61.09
74680;BME280;63211;48.548;2.704;2022-09-12T11:17:53;100455.91;;;21.69;60.82
74680;BME280;63211;48.548;2.704;2022-09-12T11:20:40;100465.84;;;21.75;61.06
74680;BME280;63211;48.548;2.704;2022-09-12T11:23:32;100464.53;;;21.78;60.85
74680;BME280;63211;48.548;2.704;2022-09-12T11:26:11;100453.81;;;21.76;60.93
74680;BME280;63211;48.548;2.704;2022-09-12T11:28:51;100455.22;;;21.79;61.24
74680;BME280;63211;48.548;2.704;2022-09-12T11:31:48;100461.28;;;21.81;60.85
74680;BME280;63211;48.548;2.704;2022-09-12T11:34:42;100467.59;;;21.81;61.12
74680;BME280;63211;48.548;2.704;2022-09-12T11:37:30;100466.22;;;21.84;61.37
74680;BME280;63211;48.548;2.704;2022-09-12T11:40:04;100459.91;;;21.83;60.95
74680;BME280;63211;48.548;2.704;2022-09-12T11:42:35;100446.75;;;21.80;61.00
74680;BME280;63211;48.548;2.704;2022-09-12T11:45:12;100434.16;;;21.84;61.08
74680;BME280;63211;48.548;2.704;2022-09-12T11:47:45;100431.44;;;21.84;61.10
74680;BME280;63211;48.548;2.704;2022-09-12T11:50:19;100419.63;;;21.84;60.93
74680;BME280;63211;48.548;2.704;2022-09-12T11:52:49;100413.91;;;21.85;61.12
74680;BME280;63211;48.548;2.704;2022-09-12T11:55:18;100396.78;;;21.73;61.03
74680;BME280;63211;48.548;2.704;2022-09-12T11:57:52;100404.84;;;21.85;61.02
74680;BME280;63211;48.548;2.704;2022-09-12T12:00:22;100406.75;;;21.84;61.07
74680;BME280;63211;48.548;2.704;2022-09-12T12:02:54;100412.25;;;21.84;61.21
74680;BME280;63211;48.548;2.704;2022-09-12T12:05:27;100427.59;;;21.85;61.31
74680;BME280;63211;48.548;2.704;2022-09-12T12:07:59;100426.50;;;21.81;61.27
74680;BME280;63211;48.548;2.704;2022-09-12T12:10:31;100418.81;;;21.83;61.43
74680;BME280;63211;48.548;2.704;2022-09-12T12:13:02;100425.13;;;21.84;61.17
74680;BME280;63211;48.548;2.704;2022-09-12T12:15:33;100432.25;;;21.85;61.09
74680;BME280;63211;48.548;2.704;2022-09-12T12:18:05;100436.91;;;21.84;61.35
74680;BME280;63211;48.548;2.704;2022-09-12T12:20:32;100431.19;;;21.86;61.18
74680;BME280;63211;48.548;2.704;2022-09-12T12:22:59;100419.97;;;21.87;61.35
74680;BME280;63211;48.548;2.704;2022-09-12T12:25:39;100418.06;;;21.88;61.06
74680;BME280;63211;48.548;2.704;2022-09-12T12:28:07;100414.47;;;21.87;61.25
74680;BME280;63211;48.548;2.704;2022-09-12T12:30:59;100406.25;;;21.87;61.23
74680;BME280;63211;48.548;2.704;2022-09-12T12:33:53;100403.50;;;21.87;61.43
74680;BME280;63211;48.548;2.704;2022-09-12T12:36:42;100405.19;;;21.88;61.30
74680;BME280;63211;48.548;2.704;2022-09-12T12:48:42;100407.66;;;21.90;61.12
74680;BME280;63211;48.548;2.704;2022-09-12T12:51:19;100401.34;;;21.89;61.32
74680;BME280;63211;48.548;2.704;2022-09-12T12:53:52;100402.19;;;21.90;61.37
74680;BME280;63211;48.548;2.704;2022-09-12T12:56:37;100410.41;;;21.90;61.40
74680;BME280;63211;48.548;2.704;2022-09-12T12:59:14;100408.50;;;21.90;61.37
74680;BME280;63211;48.548;2.704;2022-09-12T13:01:46;100407.66;;;21.90;61.68
74680;BME280;63211;48.548;2.704;2022-09-12T13:04:16;100406.59;;;21.91;61.41
74680;BME280;63211;48.548;2.704;2022-09-12T13:06:53;100413.16;;;21.90;61.53
74680;BME280;63211;48.548;2.704;2022-09-12T13:09:23;100412.06;;;21.91;61.34
74680;BME280;63211;48.548;2.704;2022-09-12T13:11:58;100404.66;;;21.91;61.52
74680;BME280;63211;48.548;2.704;2022-09-12T13:14:47;100406.31;;;21.92;61.38
74680;BME280;63211;48.548;2.704;2022-09-12T13:17:19;100391.78;;;21.92;61.58
74680;BME280;63211;48.548;2.704;2022-09-12T13:19:48;100400.00;;;21.92;61.30
74680;BME280;63211;48.548;2.704;2022-09-12T13:22:16;100399.75;;;21.93;61.61
74680;BME280;63211;48.548;2.704;2022-09-12T13:24:47;100394.28;;;21.93;61.34
74680;BME280;63211;48.548;2.704;2022-09-12T13:27:18;100397.84;;;21.94;61.24
74680;BME280;63211;48.548;2.704;2022-09-12T13:29:44;100382.50;;;21.93;61.35
74680;BME280;63211;48.548;2.704;2022-09-12T13:32:11;100378.91;;;21.92;61.47